Genesee County Information

FAA: GVQ - ICAO: KGVQ

Genesee County (Airport) Location

State New York
County Genesee
City Batavia
Genesee County (Airport) is 2 miles north of Batavia, NY.
Latitude 43-01-54.3000N
Longitude 078-10-10.8000W
Elevation 913ft

Genesee County METARs

METAR KGVQ 190856Z AUTO 16003KT 10SM BKN016 OVC027 10/09 A2968 RMK AO2 SLP050 T01000094 56024
Altimeter 29.68"
Temperature 10.0°C (50.0°F)
Wind 160° at 3KT
Clouds broken at 1,600ft overcast at 2,700ft
Visibility 10.0mi
Time observed: 2022-05-19T08:56:00Z

Genesee County (Airport) Details

Status Operational
Activation N/A
Ownership Public
Usage Public
Chart DETROIT
ATC on-site No
Beacon schedule sunset-sunrise
Beacon color clear green

Genesee County (Airport) Contacts

Owner MR. TIMOTHY HENS
Owner address GENESEE CO. SUPT. OF HWY., 153 CEDAR STREET, BATAVIA, NY 14020
Owner phone 585-344-8508
Manager TIMOTHY ALLEN
Manager address 4906 PINE HILL ROAD, ALBION, NY 14411
Manager phone 585-589-7758

Genesee County Radio Frequencies

Genesee County (Airport) Radio Frequencies

UNICOM 122.7
Common traffic advisory frequency (CTAF) 122.7